createdAt,value
2023-05-16T00:02:03.407Z,10.30
2023-05-16T00:04:33.067Z,10.30
2023-05-16T00:07:01.089Z,10.30
2023-05-16T00:09:30.483Z,10.40
2023-05-16T00:11:58.855Z,10.30
2023-05-16T00:14:27.344Z,10.40
2023-05-16T00:16:55.365Z,10.20
2023-05-16T00:19:23.528Z,9.90
2023-05-16T00:21:51.409Z,10.30
2023-05-16T00:24:19.396Z,10.30
2023-05-16T00:26:48.560Z,10.50
2023-05-16T00:29:16.412Z,10.30
2023-05-16T00:31:44.258Z,10.40
2023-05-16T00:34:12.123Z,10.30
2023-05-16T00:36:40.026Z,11.10
2023-05-16T00:39:07.927Z,10.30
2023-05-16T00:41:35.988Z,10.40
2023-05-16T00:44:05.338Z,10.40
2023-05-16T00:46:33.304Z,10.60
2023-05-16T00:49:01.344Z,10.20
2023-05-16T00:51:29.438Z,10.30
2023-05-16T00:53:58.471Z,10.40
2023-05-16T00:56:26.457Z,10.40
2023-05-16T00:58:54.290Z,10.30
2023-05-16T01:01:26.119Z,10.50
2023-05-16T01:03:55.403Z,10.30
2023-05-16T01:06:23.485Z,10.60
2023-05-16T01:08:51.362Z,10.40
2023-05-16T01:11:24.881Z,10.30
2023-05-16T01:14:00.590Z,10.30
2023-05-16T01:16:37.555Z,10.20
2023-05-16T01:19:16.250Z,10.20
2023-05-16T01:21:51.202Z,10.20
2023-05-16T01:24:28.312Z,10.30
2023-05-16T01:26:59.257Z,10.10
2023-05-16T01:29:27.262Z,10.70
2023-05-16T01:31:55.166Z,10.20
2023-05-16T01:34:23.068Z,10.20
2023-05-16T01:37:01.520Z,10.20
2023-05-16T01:39:38.667Z,10.30
2023-05-16T01:42:12.156Z,12.00
2023-05-16T01:44:45.542Z,10.20
2023-05-16T01:47:15.076Z,10.10
2023-05-16T01:49:50.951Z,10.20
2023-05-16T01:52:23.732Z,10.10
2023-05-16T01:54:54.356Z,10.20
2023-05-16T01:57:26.873Z,10.30
2023-05-16T01:59:54.890Z,10.10
2023-05-16T02:02:22.826Z,10.10
2023-05-16T02:04:51.491Z,10.00
2023-05-16T02:07:19.561Z,10.10
2023-05-16T02:09:47.381Z,10.10
2023-05-16T02:12:15.373Z,11.40
2023-05-16T02:14:44.594Z,9.80
2023-05-16T02:17:12.435Z,9.70
2023-05-16T02:19:40.475Z,10.10
2023-05-16T02:22:08.367Z,11.30
2023-05-16T02:24:36.706Z,10.00
2023-05-16T02:27:04.720Z,9.90
2023-05-16T02:29:32.727Z,9.90
2023-05-16T02:32:01.909Z,9.90
2023-05-16T02:34:29.726Z,9.80
2023-05-16T02:36:57.568Z,9.70
2023-05-16T02:39:25.450Z,9.70
2023-05-16T02:41:53.259Z,9.70
2023-05-16T02:44:21.126Z,9.60
2023-05-16T02:46:49.080Z,9.60
2023-05-16T02:49:18.400Z,9.60
2023-05-16T02:51:46.733Z,9.60
2023-05-16T02:54:14.610Z,9.60
2023-05-16T02:56:42.500Z,9.60
2023-05-16T02:59:10.343Z,9.60
2023-05-16T03:01:38.275Z,9.60
2023-05-16T03:04:06.318Z,9.60
2023-05-16T03:06:35.633Z,9.60
2023-05-16T03:09:03.530Z,9.60
2023-05-16T03:11:31.365Z,9.60
2023-05-16T03:14:01.769Z,10.60
2023-05-16T03:16:30.454Z,9.50
2023-05-16T03:18:58.413Z,9.50
2023-05-16T03:21:26.313Z,9.50
2023-05-16T03:23:56.033Z,9.50
2023-05-16T03:26:24.503Z,9.50
2023-05-16T03:28:52.555Z,9.50
2023-05-16T03:31:20.551Z,9.50
2023-05-16T03:33:48.480Z,9.40
2023-05-16T03:36:16.391Z,9.40
2023-05-16T03:38:44.316Z,9.40
2023-05-16T03:41:13.515Z,9.40
2023-05-16T03:43:41.601Z,9.40
2023-05-16T03:46:09.520Z,9.40
2023-05-16T03:48:37.442Z,9.30
2023-05-16T03:51:05.500Z,9.30
2023-05-16T03:53:33.517Z,9.30
2023-05-16T03:56:01.373Z,9.30
2023-05-16T03:58:30.664Z,9.30
2023-05-16T04:00:58.758Z,9.30
2023-05-16T04:03:28.634Z,9.30
2023-05-16T04:05:57.215Z,9.30
2023-05-16T04:08:25.678Z,9.30
2023-05-16T04:10:53.581Z,9.30
2023-05-16T04:13:21.484Z,9.30
2023-05-16T04:15:50.800Z,9.30
2023-05-16T04:18:18.684Z,9.30
2023-05-16T04:20:47.550Z,9.30
2023-05-16T04:23:15.417Z,9.40
2023-05-16T04:25:43.392Z,9.40
2023-05-16T04:28:11.360Z,9.40
2023-05-16T04:30:39.191Z,9.40
2023-05-16T04:33:08.483Z,9.40
2023-05-16T04:35:37.668Z,9.30
2023-05-16T04:38:06.280Z,9.30
2023-05-16T04:40:34.171Z,9.30
2023-05-16T04:43:02.070Z,9.30
2023-05-16T04:45:30.016Z,9.40
2023-05-16T04:47:57.981Z,9.30
2023-05-16T04:50:27.185Z,9.30
2023-05-16T04:52:56.487Z,9.30
2023-05-16T04:55:24.696Z,9.30
2023-05-16T04:57:52.693Z,9.30
2023-05-16T05:00:20.976Z,9.30
2023-05-16T05:02:48.949Z,9.20
2023-05-16T05:05:16.938Z,9.20
2023-05-16T05:07:46.488Z,9.20
2023-05-16T05:10:14.544Z,9.10
2023-05-16T05:12:42.519Z,9.10
2023-05-16T05:15:10.725Z,9.20
2023-05-16T05:17:38.781Z,9.20
2023-05-16T05:20:08.622Z,9.30
2023-05-16T05:22:36.553Z,9.30
2023-05-16T05:25:07.122Z,9.30
2023-05-16T05:27:35.027Z,9.30
2023-05-16T05:30:03.661Z,9.40
2023-05-16T05:32:32.045Z,9.50
2023-05-16T05:35:00.040Z,9.60
2023-05-16T05:37:28.369Z,9.90
2023-05-16T05:39:56.788Z,10.10
2023-05-16T05:42:26.062Z,10.40
2023-05-16T05:44:53.939Z,10.60
2023-05-16T05:47:22.092Z,10.70
2023-05-16T05:49:50.220Z,10.80
2023-05-16T05:52:18.180Z,10.80
2023-05-16T05:54:46.071Z,11.00
2023-05-16T05:57:13.959Z,11.10
2023-05-16T05:59:43.171Z,11.00
2023-05-16T06:02:11.262Z,10.90
2023-05-16T06:04:42.601Z,11.00
2023-05-16T06:07:10.518Z,11.10
2023-05-16T06:09:38.525Z,11.30
2023-05-16T06:12:07.119Z,11.50
2023-05-16T06:14:34.992Z,11.70
2023-05-16T06:17:04.310Z,11.90
2023-05-16T06:19:32.268Z,12.30
2023-05-16T06:22:00.162Z,12.70
2023-05-16T06:24:29.732Z,12.90
2023-05-16T06:26:58.125Z,13.10
2023-05-16T06:29:26.040Z,13.10
2023-05-16T06:31:55.898Z,13.30
2023-05-16T06:34:28.091Z,13.40
2023-05-16T06:36:56.329Z,13.10
2023-05-16T06:39:24.169Z,12.70
2023-05-16T06:41:53.736Z,12.60
2023-05-16T06:44:24.202Z,12.60
2023-05-16T06:46:52.285Z,12.80
2023-05-16T06:49:20.234Z,13.30
2023-05-16T06:51:49.542Z,13.30
2023-05-16T06:54:17.452Z,13.30
2023-05-16T06:56:46.338Z,13.10
2023-05-16T06:59:14.272Z,12.70
2023-05-16T07:01:42.633Z,12.50
2023-05-16T07:04:10.715Z,12.50
2023-05-16T07:06:38.753Z,12.50
2023-05-16T07:09:08.216Z,12.50
2023-05-16T07:11:36.131Z,12.60
2023-05-16T07:14:04.068Z,12.80
2023-05-16T07:16:32.700Z,13.30
2023-05-16T07:19:00.660Z,13.70
2023-05-16T07:21:29.257Z,13.60
2023-05-16T07:23:57.523Z,13.40
2023-05-16T07:26:26.805Z,13.10
2023-05-16T07:28:55.192Z,12.80
2023-05-16T07:31:24.063Z,13.00
2023-05-16T07:33:52.536Z,13.50
2023-05-16T07:36:21.209Z,14.10
2023-05-16T07:38:49.128Z,14.50
2023-05-16T07:41:17.042Z,14.80
2023-05-16T07:43:46.360Z,15.00
2023-05-16T07:46:14.392Z,15.40
2023-05-16T07:48:42.343Z,15.30
2023-05-16T07:51:10.305Z,15.10
2023-05-16T07:53:38.265Z,15.30
2023-05-16T07:56:07.088Z,15.90
2023-05-16T07:58:35.158Z,15.60
2023-05-16T08:01:04.620Z,15.60
2023-05-16T08:03:32.762Z,15.50
2023-05-16T08:06:00.837Z,15.80
2023-05-16T08:08:28.740Z,15.80
2023-05-16T08:10:56.928Z,16.20
2023-05-16T08:13:24.869Z,16.40
2023-05-16T08:15:52.979Z,16.60
2023-05-16T08:18:25.071Z,16.90
2023-05-16T08:20:52.990Z,17.10
2023-05-16T08:23:21.139Z,17.20
2023-05-16T08:25:49.267Z,17.40
2023-05-16T08:28:17.309Z,17.40
2023-05-16T08:30:46.513Z,17.80
2023-05-16T08:33:16.017Z,17.80
2023-05-16T08:35:46.237Z,17.90
2023-05-16T08:38:14.144Z,17.30
2023-05-16T08:40:42.798Z,17.30
2023-05-16T08:43:11.044Z,16.80
2023-05-16T08:45:39.053Z,16.20
2023-05-16T08:48:10.473Z,16.20
2023-05-16T08:50:38.918Z,16.60
2023-05-16T08:53:10.282Z,17.10
2023-05-16T08:55:38.805Z,16.90
2023-05-16T08:58:06.825Z,17.40
2023-05-16T09:00:34.911Z,17.60
2023-05-16T09:03:03.906Z,17.50
2023-05-16T09:05:32.484Z,16.90
2023-05-16T09:08:01.079Z,16.50
2023-05-16T09:10:30.335Z,17.60
2023-05-16T09:12:58.239Z,16.40
2023-05-16T09:15:33.120Z,16.50
2023-05-16T09:18:03.010Z,16.80
2023-05-16T09:20:31.394Z,16.60
2023-05-16T09:23:01.036Z,16.30
2023-05-16T09:25:32.456Z,16.20
2023-05-16T09:28:03.101Z,15.90
2023-05-16T09:30:33.719Z,16.10
2023-05-16T09:33:01.969Z,16.80
2023-05-16T09:35:44.030Z,17.60
2023-05-16T09:38:16.344Z,17.50
2023-05-16T09:40:46.459Z,18.40
2023-05-16T09:43:17.353Z,18.50
2023-05-16T09:45:48.689Z,18.50
2023-05-16T09:48:17.981Z,18.80
2023-05-16T09:50:52.728Z,18.70
2023-05-16T09:53:27.516Z,18.70
2023-05-16T09:56:07.714Z,18.70
2023-05-16T09:58:37.104Z,19.00
2023-05-16T10:01:05.537Z,19.00
2023-05-16T10:03:38.930Z,18.70
2023-05-16T10:06:08.195Z,18.00
2023-05-16T10:08:37.995Z,17.90
2023-05-16T10:11:07.773Z,17.60
2023-05-16T10:13:37.698Z,16.70
2023-05-16T10:16:09.306Z,17.50
2023-05-16T10:18:39.380Z,16.10
2023-05-16T10:21:11.828Z,15.80
2023-05-16T10:23:43.404Z,15.50
2023-05-16T10:26:14.940Z,16.00
2023-05-16T10:28:43.402Z,15.20
2023-05-16T10:31:12.072Z,15.00
2023-05-16T10:33:40.674Z,15.90
2023-05-16T10:36:09.790Z,15.50
2023-05-16T10:38:38.559Z,16.50
2023-05-16T10:41:07.058Z,15.80
2023-05-16T10:43:36.699Z,16.10
2023-05-16T10:46:08.575Z,16.30
2023-05-16T10:48:38.764Z,16.10
2023-05-16T10:51:44.741Z,17.60
2023-05-16T10:54:15.313Z,16.80
2023-05-16T10:56:44.103Z,17.30
2023-05-16T10:59:26.442Z,18.00
2023-05-16T11:01:57.447Z,18.30
2023-05-16T11:04:45.583Z,17.80
2023-05-16T11:07:13.731Z,18.20
2023-05-16T11:09:45.642Z,18.50
2023-05-16T11:12:14.254Z,18.50
2023-05-16T11:14:45.084Z,18.60
2023-05-16T11:17:14.420Z,18.10
2023-05-16T11:19:45.074Z,18.20
2023-05-16T11:22:27.302Z,17.60
2023-05-16T11:24:58.060Z,17.30
2023-05-16T11:27:28.932Z,17.70
2023-05-16T11:30:03.752Z,17.30
2023-05-16T11:32:34.507Z,16.60
2023-05-16T11:35:03.853Z,16.50
2023-05-16T11:37:31.847Z,16.80
2023-05-16T11:40:00.955Z,17.10
2023-05-16T11:42:33.852Z,17.40
2023-05-16T11:45:07.868Z,18.10
2023-05-16T11:47:38.121Z,17.90
2023-05-16T11:50:07.738Z,17.80
2023-05-16T11:52:35.787Z,17.90
2023-05-16T11:55:07.248Z,17.90
2023-05-16T11:57:35.625Z,18.20
2023-05-16T12:00:08.022Z,18.40
2023-05-16T12:02:36.105Z,19.00
2023-05-16T12:05:09.615Z,18.50
2023-05-16T12:07:37.846Z,17.80
2023-05-16T12:10:07.578Z,17.60
2023-05-16T12:12:35.969Z,17.00
2023-05-16T12:15:06.702Z,17.40
2023-05-16T12:17:35.267Z,16.40
2023-05-16T12:20:05.975Z,16.10
2023-05-16T12:22:34.478Z,15.30
2023-05-16T12:25:28.078Z,15.40
2023-05-16T12:27:57.049Z,15.00
2023-05-16T12:30:27.685Z,14.70
2023-05-16T12:32:59.710Z,15.00
2023-05-16T12:35:31.557Z,14.90
2023-05-16T12:37:59.688Z,15.90
2023-05-16T12:40:30.280Z,15.90
2023-05-16T12:42:59.181Z,16.40
2023-05-16T12:45:29.391Z,16.40
2023-05-16T12:47:57.399Z,16.60
2023-05-16T12:50:28.379Z,16.60
2023-05-16T12:53:00.539Z,16.70
2023-05-16T12:55:28.533Z,16.20
2023-05-16T12:57:58.217Z,16.10
2023-05-16T13:00:26.602Z,16.10
2023-05-16T13:02:56.215Z,15.70
2023-05-16T13:05:24.336Z,15.80
2023-05-16T13:07:52.725Z,16.40
2023-05-16T13:10:20.926Z,15.90
2023-05-16T13:12:48.964Z,15.50
2023-05-16T13:15:16.857Z,16.20
2023-05-16T13:17:45.000Z,16.00
2023-05-16T13:20:15.006Z,16.20
2023-05-16T13:22:44.571Z,16.50
2023-05-16T13:25:13.170Z,16.60
2023-05-16T13:27:41.238Z,16.80
2023-05-16T13:30:10.020Z,17.20
2023-05-16T13:32:38.165Z,17.40
2023-05-16T13:35:06.853Z,17.50
2023-05-16T13:37:36.681Z,18.00
2023-05-16T13:40:05.347Z,18.10
2023-05-16T13:42:33.271Z,18.20
2023-05-16T13:45:01.161Z,18.40
2023-05-16T13:47:29.655Z,18.40
2023-05-16T13:49:57.692Z,18.00
2023-05-16T13:52:25.713Z,17.10
2023-05-16T13:54:54.986Z,16.80
2023-05-16T13:57:23.258Z,16.00
2023-05-16T14:02:21.995Z,16.00
2023-05-16T14:04:50.165Z,16.00
2023-05-16T14:07:18.302Z,16.50
2023-05-16T14:09:46.260Z,16.00
2023-05-16T14:12:15.500Z,15.10
2023-05-16T14:14:43.469Z,15.10
2023-05-16T14:17:11.348Z,14.40
2023-05-16T14:19:39.811Z,14.60
2023-05-16T14:22:08.130Z,13.90
2023-05-16T14:24:36.136Z,13.70
2023-05-16T14:27:04.263Z,13.10
2023-05-16T14:29:33.521Z,13.50
2023-05-16T14:32:01.557Z,13.50
2023-05-16T14:34:29.573Z,14.10
2023-05-16T14:36:57.480Z,13.90
2023-05-16T14:39:25.390Z,14.70
2023-05-16T14:41:53.387Z,13.90
2023-05-16T14:44:21.751Z,15.00
2023-05-16T14:46:51.634Z,14.20
2023-05-16T14:49:19.770Z,14.50
2023-05-16T14:51:49.372Z,14.70
2023-05-16T14:54:17.408Z,14.90
2023-05-16T14:56:46.185Z,15.50
2023-05-16T14:59:14.287Z,15.30
2023-05-16T15:01:42.393Z,15.20
2023-05-16T15:04:11.723Z,15.60
2023-05-16T15:06:39.615Z,15.40
2023-05-16T15:09:07.697Z,14.80
2023-05-16T15:11:36.079Z,15.40
2023-05-16T15:14:04.026Z,16.50
2023-05-16T15:16:32.148Z,15.60
2023-05-16T15:19:00.236Z,16.20
2023-05-16T15:21:31.462Z,16.50
2023-05-16T15:23:59.706Z,15.30
2023-05-16T15:26:27.891Z,15.40
2023-05-16T15:28:56.626Z,15.50
2023-05-16T15:31:24.591Z,16.40
2023-05-16T15:33:52.518Z,14.50
2023-05-16T15:36:20.453Z,15.20
2023-05-16T15:38:49.912Z,15.30
2023-05-16T15:41:32.116Z,15.40
2023-05-16T15:44:06.252Z,15.60
2023-05-16T15:46:34.428Z,15.70
2023-05-16T15:49:02.493Z,15.60
2023-05-16T15:51:30.827Z,15.60
2023-05-16T15:54:00.087Z,15.70
2023-05-16T15:56:28.030Z,15.50
2023-05-16T15:58:56.844Z,15.60
2023-05-16T16:01:24.919Z,15.40
2023-05-16T16:03:53.031Z,15.00
2023-05-16T16:06:22.830Z,15.30
2023-05-16T16:08:50.759Z,15.20
2023-05-16T16:11:21.432Z,15.20
2023-05-16T16:13:49.456Z,15.00
2023-05-16T16:16:17.478Z,15.20
2023-05-16T16:18:45.670Z,15.20
2023-05-16T16:21:13.543Z,15.30
2023-05-16T16:23:42.082Z,15.00
2023-05-16T16:26:10.014Z,15.30
2023-05-16T16:28:39.290Z,14.80
2023-05-16T16:31:07.256Z,14.60
2023-05-16T16:33:35.177Z,14.70
2023-05-16T16:36:03.218Z,14.60
2023-05-16T16:38:31.183Z,14.60
2023-05-16T16:40:59.152Z,14.60
2023-05-16T16:43:27.316Z,14.50
2023-05-16T16:45:56.554Z,14.30
2023-05-16T16:48:24.573Z,14.20
2023-05-16T16:50:53.079Z,14.20
2023-05-16T16:53:21.111Z,14.50
2023-05-16T16:55:49.072Z,14.20
2023-05-16T16:58:16.995Z,14.10
2023-05-16T17:00:45.063Z,14.00
2023-05-16T17:03:14.417Z,13.90
2023-05-16T17:05:43.300Z,13.80
2023-05-16T17:08:12.123Z,13.80
2023-05-16T17:10:40.099Z,13.70
2023-05-16T17:13:10.450Z,13.60
2023-05-16T17:15:38.848Z,13.70
2023-05-16T17:18:07.920Z,13.80
2023-05-16T17:20:37.596Z,13.90
2023-05-16T17:23:05.632Z,13.80
2023-05-16T17:25:33.587Z,13.90
2023-05-16T17:28:01.503Z,13.80
2023-05-16T17:30:29.539Z,13.80
2023-05-16T17:32:57.577Z,13.60
2023-05-16T17:35:25.592Z,13.50
2023-05-16T17:37:54.921Z,13.40
2023-05-16T17:40:22.871Z,13.30
2023-05-16T17:42:51.252Z,13.30
2023-05-16T17:45:19.549Z,13.30
2023-05-16T17:47:50.559Z,13.50
2023-05-16T17:50:19.899Z,13.30
2023-05-16T17:52:50.045Z,13.40
2023-05-16T17:55:19.311Z,13.30
2023-05-16T17:57:47.334Z,13.10
2023-05-16T18:00:17.658Z,12.90
2023-05-16T18:02:46.815Z,12.80
2023-05-16T18:05:16.326Z,12.70
2023-05-16T18:07:44.324Z,12.60
2023-05-16T18:10:13.448Z,12.60
2023-05-16T18:12:43.712Z,12.50
2023-05-16T18:15:11.963Z,12.40
2023-05-16T18:17:40.060Z,12.30
2023-05-16T18:20:10.896Z,12.30
2023-05-16T18:22:39.645Z,12.20
2023-05-16T18:25:09.534Z,12.20
2023-05-16T18:27:38.287Z,12.10
2023-05-16T18:30:08.931Z,12.00
2023-05-16T18:32:37.257Z,11.90
2023-05-16T18:35:05.469Z,11.60
2023-05-16T18:37:33.389Z,11.30
2023-05-16T18:40:01.386Z,11.00
2023-05-16T18:42:29.515Z,10.80
2023-05-16T18:44:57.446Z,10.60
2023-05-16T18:47:26.747Z,10.50
2023-05-16T18:49:54.719Z,10.40
2023-05-16T18:52:22.611Z,10.30
2023-05-16T18:54:50.685Z,10.20
2023-05-16T18:57:18.762Z,10.20
2023-05-16T18:59:46.924Z,10.20
2023-05-16T19:02:14.825Z,10.10
2023-05-16T19:04:44.145Z,10.10
2023-05-16T19:07:12.564Z,9.70
2023-05-16T19:09:40.478Z,10.10
2023-05-16T19:12:08.840Z,10.00
2023-05-16T19:14:37.233Z,10.00
2023-05-16T19:17:06.384Z,10.00
2023-05-16T19:19:34.318Z,10.00
2023-05-16T19:22:03.783Z,10.00
2023-05-16T19:24:31.697Z,9.90
2023-05-16T19:26:59.604Z,9.90
2023-05-16T19:29:27.557Z,9.90
2023-05-16T19:31:55.876Z,9.80
2023-05-16T19:34:26.418Z,9.80
2023-05-16T19:36:54.658Z,9.70
2023-05-16T19:39:24.013Z,9.70
2023-05-16T19:41:52.477Z,9.60
2023-05-16T19:44:20.448Z,9.70
2023-05-16T19:46:48.387Z,9.70
2023-05-16T19:49:19.506Z,10.10
2023-05-16T19:51:48.283Z,9.70
2023-05-16T19:54:16.297Z,9.70
2023-05-16T19:56:45.574Z,9.50
2023-05-16T19:59:13.568Z,9.50
2023-05-16T20:04:14.429Z,9.60
2023-05-16T20:06:42.573Z,9.50
2023-05-16T20:09:11.213Z,9.60
2023-05-16T20:11:39.167Z,9.60
2023-05-16T20:14:08.429Z,9.60
2023-05-16T20:16:37.772Z,9.50
2023-05-16T20:19:06.951Z,9.60
2023-05-16T20:21:34.919Z,9.70
2023-05-16T20:24:02.915Z,9.60
2023-05-16T20:26:31.427Z,9.50
2023-05-16T20:28:59.326Z,9.60
2023-05-16T20:31:28.682Z,9.60
2023-05-16T20:33:56.706Z,9.60
2023-05-16T20:36:24.758Z,9.50
2023-05-16T20:38:52.627Z,9.60
2023-05-16T20:41:20.886Z,9.60
2023-05-16T20:43:50.505Z,9.40
2023-05-16T20:46:18.418Z,9.60
2023-05-16T20:48:47.665Z,9.50
2023-05-16T20:51:15.664Z,9.50
2023-05-16T20:53:43.533Z,9.50
2023-05-16T20:56:11.443Z,9.50
2023-05-16T20:58:41.971Z,8.80
2023-05-16T21:01:09.964Z,9.50
2023-05-16T21:03:37.986Z,9.50
2023-05-16T21:06:07.641Z,9.50
2023-05-16T21:08:35.899Z,9.50
2023-05-16T21:11:03.821Z,9.40
2023-05-16T21:13:31.790Z,9.40
2023-05-16T21:15:59.740Z,9.40
2023-05-16T21:18:27.715Z,9.10
2023-05-16T21:20:55.637Z,9.20
2023-05-16T21:23:24.882Z,9.20
2023-05-16T21:25:52.801Z,9.10
2023-05-16T21:28:20.718Z,9.10
2023-05-16T21:30:48.777Z,9.00
2023-05-16T21:33:16.788Z,8.90
2023-05-16T21:38:13.115Z,9.10
2023-05-16T21:40:42.425Z,8.70
2023-05-16T21:43:10.500Z,8.60
2023-05-16T21:45:40.092Z,8.50
2023-05-16T21:48:08.245Z,8.60
2023-05-16T21:50:36.147Z,8.40
2023-05-16T21:53:04.005Z,8.60
2023-05-16T21:55:31.905Z,8.30
2023-05-16T21:58:01.151Z,8.20
2023-05-16T22:00:29.044Z,8.30
2023-05-16T22:02:56.993Z,8.10
2023-05-16T22:05:25.224Z,8.10
2023-05-16T22:07:53.677Z,8.00
2023-05-16T22:10:21.767Z,8.00
2023-05-16T22:12:50.045Z,7.90
2023-05-16T22:15:19.254Z,7.90
2023-05-16T22:17:48.112Z,7.70
2023-05-16T22:20:16.200Z,7.90
2023-05-16T22:22:44.660Z,7.70
2023-05-16T22:25:12.546Z,7.80
2023-05-16T22:27:40.471Z,7.90
2023-05-16T22:30:09.615Z,7.70
2023-05-16T22:32:39.002Z,7.60
2023-05-16T22:35:07.713Z,7.50
2023-05-16T22:37:35.663Z,7.50
2023-05-16T22:40:03.580Z,7.90
2023-05-16T22:42:31.701Z,7.50
2023-05-16T22:44:59.575Z,7.50
2023-05-16T22:47:28.817Z,8.50
2023-05-16T22:49:58.286Z,7.80
2023-05-16T22:52:26.426Z,7.70
2023-05-16T22:54:54.303Z,7.60
2023-05-16T22:57:22.185Z,7.60
2023-05-16T22:59:50.051Z,7.80
2023-05-16T23:02:17.965Z,7.80
2023-05-16T23:04:45.924Z,7.80
2023-05-16T23:07:17.173Z,7.80
2023-05-16T23:09:45.329Z,7.80
2023-05-16T23:12:16.307Z,7.80
2023-05-16T23:14:44.221Z,8.10
2023-05-16T23:17:12.495Z,7.90
2023-05-16T23:19:40.521Z,8.00
2023-05-16T23:22:08.415Z,7.80
2023-05-16T23:24:37.710Z,8.20
2023-05-16T23:27:05.848Z,7.80
2023-05-16T23:29:33.736Z,7.80
2023-05-16T23:32:01.647Z,8.30
2023-05-16T23:34:29.580Z,7.80
2023-05-16T23:36:57.489Z,7.60
2023-05-16T23:39:25.371Z,7.90
2023-05-16T23:41:54.728Z,7.50
2023-05-16T23:44:22.622Z,7.50
2023-05-16T23:46:50.613Z,7.50
2023-05-16T23:49:18.515Z,7.50
2023-05-16T23:51:57.364Z,7.50
2023-05-16T23:54:25.928Z,7.30
2023-05-16T23:56:55.229Z,7.40
2023-05-16T23:59:23.134Z,7.40
